createdAt,value
2023-04-23T00:00:41.035Z,7.00
2023-04-23T00:03:13.176Z,6.95
2023-04-23T00:05:46.304Z,6.87
2023-04-23T00:08:18.134Z,6.81
2023-04-23T00:10:47.098Z,6.83
2023-04-23T00:13:21.931Z,6.82
2023-04-23T00:15:52.849Z,6.83
2023-04-23T00:18:21.922Z,6.95
2023-04-23T00:20:52.203Z,7.03
2023-04-23T00:23:20.565Z,7.08
2023-04-23T00:25:50.074Z,7.02
2023-04-23T00:28:25.714Z,7.06
2023-04-23T00:30:54.920Z,7.03
2023-04-23T00:33:29.936Z,6.98
2023-04-23T00:35:59.895Z,7.05
2023-04-23T00:38:28.522Z,7.07
2023-04-23T00:41:03.214Z,7.08
2023-04-23T00:43:33.951Z,7.10
2023-04-23T00:46:05.320Z,7.12
2023-04-23T00:48:35.527Z,7.16
2023-04-23T00:51:08.518Z,6.96
2023-04-23T00:53:37.088Z,6.80
2023-04-23T00:56:08.749Z,6.68
2023-04-23T00:58:37.696Z,6.75
2023-04-23T01:01:07.499Z,6.60
2023-04-23T01:03:41.072Z,6.59
2023-04-23T01:06:13.450Z,6.57
2023-04-23T01:08:45.318Z,6.55
2023-04-23T01:11:16.267Z,6.59
2023-04-23T01:13:47.013Z,6.62
2023-04-23T01:16:22.267Z,6.57
2023-04-23T01:18:53.927Z,6.58
2023-04-23T01:21:25.041Z,6.52
2023-04-23T01:23:56.318Z,6.52
2023-04-23T01:26:25.798Z,6.52
2023-04-23T01:28:57.498Z,6.58
2023-04-23T01:31:26.321Z,6.49
2023-04-23T01:33:56.631Z,6.49
2023-04-23T01:36:28.581Z,6.46
2023-04-23T01:39:00.683Z,6.49
2023-04-23T01:41:34.263Z,6.46
2023-04-23T01:44:05.560Z,6.44
2023-04-23T01:46:34.464Z,6.33
2023-04-23T01:49:04.745Z,6.27
2023-04-23T01:51:34.856Z,6.17
2023-04-23T01:54:04.963Z,6.19
2023-04-23T01:56:35.539Z,6.10
2023-04-23T01:59:04.337Z,6.07
2023-04-23T02:01:44.563Z,6.02
2023-04-23T02:04:16.458Z,5.97
2023-04-23T02:06:47.820Z,5.97
2023-04-23T02:09:18.953Z,5.90
2023-04-23T02:11:52.762Z,5.84
2023-04-23T02:14:21.497Z,5.78
2023-04-23T02:16:51.797Z,5.79
2023-04-23T02:19:20.571Z,5.80
2023-04-23T02:21:59.121Z,5.70
2023-04-23T02:24:32.487Z,5.77
2023-04-23T02:27:07.442Z,5.75
2023-04-23T02:29:37.152Z,5.73
2023-04-23T02:32:05.793Z,5.74
2023-04-23T02:34:34.217Z,5.72
2023-04-23T02:37:05.209Z,5.72
2023-04-23T02:39:35.168Z,5.73
2023-04-23T02:42:06.055Z,5.75
2023-04-23T02:44:34.604Z,5.77
2023-04-23T02:47:03.567Z,5.73
2023-04-23T02:49:32.187Z,5.69
2023-04-23T02:52:01.830Z,5.76
2023-04-23T02:54:34.791Z,5.76
2023-04-23T02:57:03.460Z,5.81
2023-04-23T02:59:33.676Z,5.88
2023-04-23T03:02:02.432Z,5.89
2023-04-23T03:04:31.040Z,5.86
2023-04-23T03:06:59.716Z,5.89
2023-04-23T03:09:30.088Z,5.95
2023-04-23T03:12:02.111Z,5.97
2023-04-23T03:14:31.764Z,6.04
2023-04-23T03:17:02.676Z,6.04
2023-04-23T03:19:31.152Z,6.09
2023-04-23T03:21:59.848Z,6.02
2023-04-23T03:24:28.150Z,6.01
2023-04-23T03:26:58.988Z,5.98
2023-04-23T03:29:35.320Z,5.95
2023-04-23T03:32:05.700Z,6.00
2023-04-23T03:34:38.162Z,6.01
2023-04-23T03:37:20.041Z,5.95
2023-04-23T03:39:51.435Z,5.92
2023-04-23T03:42:20.947Z,5.93
2023-04-23T03:44:50.848Z,5.93
2023-04-23T03:47:19.662Z,5.89
2023-04-23T03:49:49.162Z,5.92
2023-04-23T03:52:23.726Z,5.92
2023-04-23T03:54:52.601Z,5.87
2023-04-23T03:57:22.989Z,5.90
2023-04-23T04:00:10.361Z,5.84
2023-04-23T04:02:49.110Z,5.86
2023-04-23T04:05:19.073Z,5.81
2023-04-23T04:07:47.550Z,5.86
2023-04-23T04:10:17.507Z,5.94
2023-04-23T04:12:48.072Z,6.01
2023-04-23T04:15:22.322Z,6.03
2023-04-23T04:17:53.123Z,6.01
2023-04-23T04:20:22.060Z,5.99
2023-04-23T04:22:51.972Z,6.06
2023-04-23T04:25:29.319Z,6.09
2023-04-23T04:27:58.579Z,6.14
2023-04-23T04:30:31.225Z,6.14
2023-04-23T04:33:00.394Z,5.99
2023-04-23T04:35:29.229Z,5.96
2023-04-23T04:37:59.043Z,5.97
2023-04-23T04:40:30.759Z,5.95
2023-04-23T04:43:01.055Z,5.90
2023-04-23T04:45:37.148Z,5.92
2023-04-23T04:48:05.966Z,5.96
2023-04-23T04:50:34.332Z,6.00
2023-04-23T04:53:03.796Z,6.01
2023-04-23T04:55:32.185Z,5.98
2023-04-23T04:58:00.605Z,5.95
2023-04-23T05:00:30.725Z,5.95
2023-04-23T05:03:01.277Z,5.94
2023-04-23T05:05:31.506Z,5.91
2023-04-23T05:08:02.527Z,5.93
2023-04-23T05:10:33.185Z,5.99
2023-04-23T05:13:02.644Z,5.99
2023-04-23T05:15:31.753Z,6.03
2023-04-23T05:18:08.361Z,6.05
2023-04-23T05:20:39.356Z,6.09
2023-04-23T05:23:08.406Z,6.12
2023-04-23T05:25:37.317Z,6.18
2023-04-23T05:28:05.905Z,6.16
2023-04-23T05:30:34.569Z,6.18
2023-04-23T05:33:03.216Z,6.22
2023-04-23T05:35:33.443Z,6.25
2023-04-23T05:38:03.310Z,6.28
2023-04-23T05:40:32.048Z,6.29
2023-04-23T05:43:01.199Z,6.33
2023-04-23T05:45:32.300Z,6.36
2023-04-23T05:48:01.690Z,6.38
2023-04-23T05:50:37.994Z,6.42
2023-04-23T05:53:07.026Z,6.46
2023-04-23T05:55:38.929Z,6.49
2023-04-23T05:58:07.246Z,6.53
2023-04-23T06:00:37.144Z,6.51
2023-04-23T06:03:06.442Z,6.47
2023-04-23T06:05:38.435Z,6.48
2023-04-23T06:08:13.050Z,6.43
2023-04-23T06:10:41.876Z,6.42
2023-04-23T06:13:12.648Z,6.45
2023-04-23T06:15:41.308Z,6.44
2023-04-23T06:18:12.312Z,6.43
2023-04-23T06:20:42.910Z,6.47
2023-04-23T06:23:15.401Z,6.44
2023-04-23T06:25:44.007Z,6.44
2023-04-23T06:28:15.117Z,6.47
2023-04-23T06:30:43.824Z,6.53
2023-04-23T06:33:14.577Z,6.65
2023-04-23T06:35:47.161Z,6.77
2023-04-23T06:38:19.043Z,6.81
2023-04-23T06:40:49.697Z,6.89
2023-04-23T06:43:18.358Z,6.97
2023-04-23T06:45:47.005Z,6.93
2023-04-23T06:48:17.023Z,6.97
2023-04-23T06:50:47.767Z,6.94
2023-04-23T06:53:17.325Z,6.94
2023-04-23T06:55:46.034Z,6.90
2023-04-23T06:58:16.025Z,6.84
2023-04-23T07:00:47.973Z,6.84
2023-04-23T07:03:17.003Z,6.87
2023-04-23T07:05:52.888Z,6.91
2023-04-23T07:08:22.712Z,6.98
2023-04-23T07:10:52.452Z,7.01
2023-04-23T07:13:22.318Z,7.04
2023-04-23T07:15:57.182Z,7.13
2023-04-23T07:18:27.158Z,7.17
2023-04-23T07:20:59.195Z,7.25
2023-04-23T07:23:29.483Z,7.26
2023-04-23T07:25:57.837Z,7.33
2023-04-23T07:28:26.460Z,7.47
2023-04-23T07:30:55.041Z,7.57
2023-04-23T07:33:31.078Z,7.67
2023-04-23T07:36:01.010Z,7.75
2023-04-23T07:38:30.882Z,7.87
2023-04-23T07:40:59.407Z,7.85
2023-04-23T07:43:28.915Z,7.79
2023-04-23T07:45:57.700Z,7.86
2023-04-23T07:48:27.831Z,7.86
2023-04-23T07:50:57.181Z,7.89
2023-04-23T07:53:29.415Z,7.87
2023-04-23T07:56:04.028Z,7.90
2023-04-23T07:58:33.183Z,7.90
2023-04-23T08:01:03.792Z,7.90
2023-04-23T08:03:32.904Z,7.94
2023-04-23T08:06:04.919Z,7.99
2023-04-23T08:08:36.159Z,7.97
2023-04-23T08:11:04.850Z,7.93
2023-04-23T08:13:33.350Z,7.97
2023-04-23T08:16:02.007Z,8.09
2023-04-23T08:18:30.973Z,8.18
2023-04-23T08:21:00.415Z,8.18
2023-04-23T08:23:29.396Z,8.26
2023-04-23T08:25:59.563Z,8.33
2023-04-23T08:28:28.147Z,8.42
2023-04-23T08:30:57.657Z,8.50
2023-04-23T08:33:26.039Z,8.57
2023-04-23T08:35:55.073Z,8.63
2023-04-23T08:38:23.871Z,8.71
2023-04-23T08:40:58.122Z,8.85
2023-04-23T08:43:34.026Z,9.13
2023-04-23T08:46:05.884Z,9.22
2023-04-23T08:48:36.158Z,9.38
2023-04-23T08:51:07.062Z,9.65
2023-04-23T08:53:39.553Z,9.87
2023-04-23T08:56:10.233Z,9.95
2023-04-23T08:58:41.284Z,10.15
2023-04-23T09:01:11.391Z,10.49
2023-04-23T09:03:43.724Z,10.68
2023-04-23T09:06:12.502Z,10.81
2023-04-23T09:08:41.112Z,10.97
2023-04-23T09:11:10.838Z,11.05
2023-04-23T09:13:41.780Z,11.34
2023-04-23T09:16:10.928Z,11.19
2023-04-23T09:18:40.539Z,11.01
2023-04-23T09:21:09.201Z,11.24
2023-04-23T09:23:41.558Z,11.26
2023-04-23T09:26:10.294Z,11.25
2023-04-23T09:28:41.675Z,10.98
2023-04-23T09:31:10.594Z,11.09
2023-04-23T09:33:39.144Z,11.01
2023-04-23T09:36:11.958Z,10.78
2023-04-23T09:38:42.933Z,10.64
2023-04-23T09:41:23.418Z,10.61
2023-04-23T09:43:54.913Z,10.61
2023-04-23T09:46:38.273Z,11.35
2023-04-23T09:49:07.976Z,11.27
2023-04-23T09:51:39.777Z,12.25
2023-04-23T09:54:14.412Z,12.63
2023-04-23T09:56:43.434Z,12.93
2023-04-23T09:59:46.715Z,12.03
2023-04-23T10:02:16.844Z,11.35
2023-04-23T10:04:47.107Z,11.00
2023-04-23T10:07:20.273Z,10.76
2023-04-23T10:09:49.515Z,10.68
2023-04-23T10:14:54.619Z,10.67
2023-04-23T10:17:23.116Z,10.74
2023-04-23T10:19:53.405Z,10.64
2023-04-23T10:22:24.410Z,10.56
2023-04-23T10:24:58.807Z,10.67
2023-04-23T10:27:44.633Z,10.74
2023-04-23T10:30:22.315Z,10.80
2023-04-23T10:32:51.761Z,10.99
2023-04-23T10:35:20.584Z,12.05
2023-04-23T10:37:51.244Z,11.71
2023-04-23T10:40:23.389Z,11.33
2023-04-23T10:42:52.753Z,11.02
2023-04-23T10:45:25.243Z,10.81
2023-04-23T10:47:56.798Z,10.62
2023-04-23T10:50:27.046Z,10.78
2023-04-23T10:52:58.533Z,11.15
2023-04-23T10:55:30.121Z,11.74
2023-04-23T10:58:06.122Z,12.11
2023-04-23T11:00:47.407Z,11.75
2023-04-23T11:03:33.458Z,11.55
2023-04-23T11:06:05.872Z,11.42
2023-04-23T11:08:37.073Z,11.18
2023-04-23T11:11:10.198Z,11.03
2023-04-23T11:13:54.320Z,10.97
2023-04-23T11:16:25.352Z,10.88
2023-04-23T11:18:58.376Z,10.76
2023-04-23T11:22:03.683Z,10.53
2023-04-23T11:24:33.623Z,10.27
2023-04-23T11:27:02.965Z,10.16
2023-04-23T11:29:34.659Z,10.11
2023-04-23T11:32:05.869Z,10.22
2023-04-23T11:34:38.220Z,10.39
2023-04-23T11:37:07.242Z,10.49
2023-04-23T11:39:36.156Z,10.62
2023-04-23T11:42:06.881Z,10.74
2023-04-23T11:44:35.686Z,10.87
2023-04-23T11:47:06.426Z,11.01
2023-04-23T11:49:34.677Z,11.17
2023-04-23T11:52:03.169Z,11.41
2023-04-23T11:54:31.998Z,11.47
2023-04-23T11:57:00.882Z,11.33
2023-04-23T11:59:29.904Z,11.57
2023-04-23T12:02:00.068Z,11.72
2023-04-23T12:04:32.461Z,11.82
2023-04-23T12:07:05.790Z,12.77
2023-04-23T12:09:39.358Z,12.91
2023-04-23T12:12:07.983Z,13.90
2023-04-23T12:14:36.308Z,14.23
2023-04-23T12:17:11.794Z,13.86
2023-04-23T12:19:45.165Z,14.49
2023-04-23T12:22:13.768Z,15.36
2023-04-23T12:24:51.719Z,15.41
2023-04-23T12:27:22.830Z,16.06
2023-04-23T12:30:00.857Z,16.49
2023-04-23T12:32:29.762Z,16.05
2023-04-23T12:35:00.593Z,15.39
2023-04-23T12:37:32.010Z,15.15
2023-04-23T12:40:01.060Z,15.28
2023-04-23T12:42:29.806Z,15.21
2023-04-23T12:45:07.824Z,14.70
2023-04-23T12:47:36.989Z,13.71
2023-04-23T12:50:08.700Z,13.58
2023-04-23T12:52:38.351Z,13.36
2023-04-23T12:55:07.800Z,13.82
2023-04-23T12:57:36.574Z,14.32
2023-04-23T13:00:06.316Z,14.35
2023-04-23T13:02:34.822Z,14.44
2023-04-23T13:05:03.314Z,14.53
2023-04-23T13:07:33.218Z,14.37
2023-04-23T13:10:01.877Z,13.81
2023-04-23T13:12:30.658Z,12.84
2023-04-23T13:15:00.146Z,12.63
2023-04-23T13:17:28.709Z,12.46
2023-04-23T13:19:58.540Z,12.30
2023-04-23T13:22:29.315Z,12.10
2023-04-23T13:25:00.598Z,11.87
2023-04-23T13:27:31.247Z,12.02
2023-04-23T13:30:00.192Z,11.88
2023-04-23T13:32:32.459Z,11.99
2023-04-23T13:35:05.484Z,12.18
2023-04-23T13:37:34.267Z,12.28
2023-04-23T13:40:04.563Z,12.67
2023-04-23T13:42:34.485Z,12.95
2023-04-23T13:45:05.241Z,13.22
2023-04-23T13:47:35.245Z,13.88
2023-04-23T13:50:07.006Z,14.23
2023-04-23T13:52:35.414Z,14.46
2023-04-23T13:55:07.983Z,14.63
2023-04-23T13:57:36.361Z,14.82
2023-04-23T14:00:05.673Z,14.98
2023-04-23T14:02:49.045Z,14.78
2023-04-23T14:05:18.164Z,14.82
2023-04-23T14:07:46.656Z,14.85
2023-04-23T14:10:16.939Z,14.88
2023-04-23T14:12:46.084Z,15.99
2023-04-23T14:15:14.932Z,15.83
2023-04-23T14:17:44.521Z,15.23
2023-04-23T14:20:15.810Z,14.20
2023-04-23T14:22:45.196Z,13.77
2023-04-23T14:25:26.009Z,13.48
2023-04-23T14:27:57.986Z,13.15
2023-04-23T14:30:28.146Z,13.07
2023-04-23T14:32:57.468Z,12.70
2023-04-23T14:35:39.561Z,12.26
2023-04-23T14:38:11.594Z,11.84
2023-04-23T14:40:41.984Z,11.45
2023-04-23T14:43:15.502Z,11.18
2023-04-23T14:45:44.547Z,11.01
2023-04-23T14:48:12.804Z,10.97
2023-04-23T14:50:41.138Z,10.72
2023-04-23T14:53:10.820Z,10.61
2023-04-23T14:55:43.418Z,10.59
2023-04-23T14:58:12.144Z,10.64
2023-04-23T15:00:41.492Z,10.51
2023-04-23T15:03:11.876Z,10.53
2023-04-23T15:05:42.036Z,10.67
2023-04-23T15:08:10.452Z,10.71
2023-04-23T15:10:38.946Z,10.67
2023-04-23T15:13:18.525Z,10.95
2023-04-23T15:15:53.384Z,11.35
2023-04-23T15:18:21.946Z,11.63
2023-04-23T15:20:50.514Z,11.95
2023-04-23T15:23:21.534Z,12.17
2023-04-23T15:25:51.545Z,12.21
2023-04-23T15:28:21.853Z,12.71
2023-04-23T15:30:50.422Z,13.07
2023-04-23T15:33:21.812Z,12.91
2023-04-23T15:35:51.276Z,12.84
2023-04-23T15:38:20.522Z,12.23
2023-04-23T15:40:49.936Z,12.32
2023-04-23T15:43:19.103Z,12.49
2023-04-23T15:45:50.295Z,12.62
2023-04-23T15:48:19.043Z,12.64
2023-04-23T15:50:47.946Z,12.54
2023-04-23T15:53:16.554Z,12.42
2023-04-23T15:55:45.218Z,12.09
2023-04-23T15:58:14.097Z,11.90
2023-04-23T16:00:42.648Z,11.88
2023-04-23T16:03:15.717Z,11.85
2023-04-23T16:05:45.028Z,11.67
2023-04-23T16:08:14.610Z,11.28
2023-04-23T16:10:43.201Z,11.19
2023-04-23T16:13:11.900Z,11.24
2023-04-23T16:15:40.408Z,11.07
2023-04-23T16:18:13.229Z,10.98
2023-04-23T16:20:41.832Z,10.83
2023-04-23T16:23:11.867Z,10.77
2023-04-23T16:25:40.586Z,10.73
2023-04-23T16:28:09.070Z,10.66
2023-04-23T16:30:37.577Z,10.76
2023-04-23T16:33:06.777Z,10.85
2023-04-23T16:35:37.472Z,10.87
2023-04-23T16:38:06.130Z,10.91
2023-04-23T16:40:35.144Z,10.93
2023-04-23T16:43:03.408Z,11.04
2023-04-23T16:45:32.254Z,11.06
2023-04-23T16:48:00.856Z,11.10
2023-04-23T16:50:29.106Z,11.13
2023-04-23T16:52:59.882Z,11.24
2023-04-23T16:55:28.748Z,11.30
2023-04-23T16:57:57.180Z,11.39
2023-04-23T17:00:27.097Z,11.45
2023-04-23T17:02:55.763Z,11.45
2023-04-23T17:05:25.201Z,11.57
2023-04-23T17:07:54.026Z,11.73
2023-04-23T17:10:24.342Z,11.90
2023-04-23T17:12:54.528Z,12.01
2023-04-23T17:15:23.886Z,12.07
2023-04-23T17:17:53.254Z,11.95
2023-04-23T17:20:22.253Z,11.94
2023-04-23T17:22:51.201Z,11.82
2023-04-23T17:25:19.781Z,11.77
2023-04-23T17:27:49.894Z,11.84
2023-04-23T17:30:18.636Z,11.82
2023-04-23T17:32:47.221Z,12.66
2023-04-23T17:35:16.048Z,12.33
2023-04-23T17:37:44.376Z,12.16
2023-04-23T17:40:13.409Z,12.04
2023-04-23T17:42:42.032Z,11.83
2023-04-23T17:45:13.082Z,11.69
2023-04-23T17:47:41.961Z,11.52
2023-04-23T17:50:12.188Z,11.47
2023-04-23T17:52:41.927Z,11.39
2023-04-23T17:55:10.762Z,11.39
2023-04-23T17:57:39.334Z,11.24
2023-04-23T18:00:14.242Z,11.17
2023-04-23T18:02:43.172Z,11.12
2023-04-23T18:05:14.291Z,11.09
2023-04-23T18:07:43.915Z,11.05
2023-04-23T18:10:13.432Z,11.00
2023-04-23T18:12:41.891Z,10.98
2023-04-23T18:15:14.387Z,10.98
2023-04-23T18:17:44.992Z,11.00
2023-04-23T18:20:16.354Z,10.99
2023-04-23T18:22:45.417Z,10.97
2023-04-23T18:25:14.069Z,10.98
2023-04-23T18:27:43.790Z,11.02
2023-04-23T18:30:15.654Z,11.53
2023-04-23T18:32:50.286Z,13.85
2023-04-23T18:35:23.034Z,14.77
2023-04-23T18:37:56.960Z,13.61
2023-04-23T18:40:25.898Z,12.45
2023-04-23T18:42:54.660Z,12.06
2023-04-23T18:45:26.879Z,11.64
2023-04-23T18:48:00.976Z,11.64
2023-04-23T18:50:42.283Z,11.39
2023-04-23T18:53:15.057Z,11.18
2023-04-23T18:55:45.910Z,11.27
2023-04-23T18:58:19.319Z,12.28
2023-04-23T19:00:49.376Z,13.17
2023-04-23T19:03:25.908Z,13.99
2023-04-23T19:06:01.509Z,13.81
2023-04-23T19:08:32.409Z,12.80
2023-04-23T19:11:00.860Z,12.31
2023-04-23T19:13:36.445Z,12.69
2023-04-23T19:16:16.586Z,12.45
2023-04-23T19:18:53.085Z,11.71
2023-04-23T19:21:21.651Z,11.20
2023-04-23T19:23:51.930Z,10.88
2023-04-23T19:26:37.327Z,10.58
2023-04-23T19:29:08.421Z,10.35
2023-04-23T19:31:39.052Z,10.19
2023-04-23T19:34:08.465Z,10.03
2023-04-23T19:36:39.930Z,9.97
2023-04-23T19:39:08.699Z,9.86
2023-04-23T19:41:40.019Z,9.81
2023-04-23T19:44:14.324Z,9.73
2023-04-23T19:46:54.523Z,9.62
2023-04-23T19:49:56.586Z,9.59
2023-04-23T19:52:43.444Z,9.48
2023-04-23T19:55:13.506Z,9.42
2023-04-23T19:57:43.140Z,9.36
2023-04-23T20:00:15.569Z,9.40
2023-04-23T20:02:46.366Z,9.33
2023-04-23T20:05:15.195Z,9.31
2023-04-23T20:07:46.665Z,9.29
2023-04-23T20:10:17.616Z,9.29
2023-04-23T20:12:46.952Z,9.23
2023-04-23T20:15:15.702Z,9.23
2023-04-23T20:17:48.351Z,9.23
2023-04-23T20:20:18.821Z,9.20
2023-04-23T20:22:48.343Z,9.19
2023-04-23T20:25:17.325Z,9.15
2023-04-23T20:27:48.289Z,9.14
2023-04-23T20:30:20.485Z,9.07
2023-04-23T20:32:50.554Z,8.98
2023-04-23T20:35:20.064Z,8.93
2023-04-23T20:37:48.524Z,8.91
2023-04-23T20:40:17.386Z,8.86
2023-04-23T20:42:46.781Z,8.87
2023-04-23T20:45:15.253Z,8.83
2023-04-23T20:47:44.659Z,8.82
2023-04-23T20:50:15.731Z,8.82
2023-04-23T20:52:45.331Z,8.85
2023-04-23T20:55:15.050Z,8.90
2023-04-23T20:57:43.703Z,8.98
2023-04-23T21:00:14.640Z,9.04
2023-04-23T21:02:43.575Z,9.05
2023-04-23T21:05:14.968Z,9.06
2023-04-23T21:07:44.751Z,9.06
2023-04-23T21:10:13.252Z,9.12
2023-04-23T21:12:43.505Z,9.12
2023-04-23T21:15:14.057Z,9.13
2023-04-23T21:17:42.825Z,9.12
2023-04-23T21:20:12.151Z,9.13
2023-04-23T21:22:42.192Z,9.15
2023-04-23T21:25:11.268Z,9.15
2023-04-23T21:27:40.179Z,9.14
2023-04-23T21:30:19.190Z,9.15
2023-04-23T21:32:48.297Z,9.18
2023-04-23T21:35:16.698Z,9.19
2023-04-23T21:37:46.984Z,9.21
2023-04-23T21:40:15.469Z,9.23
2023-04-23T21:42:45.864Z,9.28
2023-04-23T21:45:14.944Z,9.32
2023-04-23T21:47:43.376Z,9.30
2023-04-23T21:50:13.560Z,9.31
2023-04-23T21:52:44.446Z,9.33
2023-04-23T21:55:14.717Z,9.32
2023-04-23T21:57:43.480Z,9.32
2023-04-23T22:00:14.495Z,9.31
2023-04-23T22:02:46.820Z,9.29
2023-04-23T22:05:20.268Z,9.29
2023-04-23T22:07:52.905Z,9.27
2023-04-23T22:10:24.975Z,9.23
2023-04-23T22:12:53.572Z,9.23
2023-04-23T22:15:22.260Z,9.24
2023-04-23T22:17:51.373Z,9.29
2023-04-23T22:20:23.809Z,9.30
2023-04-23T22:22:52.246Z,9.28
2023-04-23T22:25:21.058Z,9.29
2023-04-23T22:27:52.438Z,9.30
2023-04-23T22:30:22.805Z,9.31
2023-04-23T22:32:51.352Z,9.32
2023-04-23T22:35:20.157Z,9.32
2023-04-23T22:37:49.778Z,9.30
2023-04-23T22:40:19.249Z,9.27
2023-04-23T22:42:47.635Z,9.24
2023-04-23T22:45:17.914Z,9.19
2023-04-23T22:47:46.413Z,9.20
2023-04-23T22:50:14.896Z,9.22
2023-04-23T22:52:44.008Z,9.21
2023-04-23T22:55:13.134Z,9.21
2023-04-23T22:57:42.601Z,9.18
2023-04-23T23:00:13.128Z,9.17
2023-04-23T23:02:43.631Z,9.09
2023-04-23T23:05:12.091Z,9.11
2023-04-23T23:07:40.531Z,9.14
2023-04-23T23:10:10.176Z,9.11
2023-04-23T23:12:39.596Z,9.04
2023-04-23T23:15:09.825Z,8.98
2023-04-23T23:17:38.450Z,8.94
2023-04-23T23:20:10.158Z,8.93
2023-04-23T23:22:38.864Z,8.95
2023-04-23T23:25:08.305Z,9.00
2023-04-23T23:27:38.119Z,9.02
2023-04-23T23:30:09.856Z,8.97
2023-04-23T23:32:38.478Z,8.97
2023-04-23T23:35:09.520Z,8.94
2023-04-23T23:37:38.006Z,8.93
2023-04-23T23:40:08.182Z,8.93
2023-04-23T23:42:37.137Z,8.89
2023-04-23T23:45:06.430Z,8.88
2023-04-23T23:47:35.036Z,8.86
2023-04-23T23:50:03.643Z,8.88
2023-04-23T23:52:33.739Z,8.88
2023-04-23T23:55:02.054Z,8.85
2023-04-23T23:57:30.748Z,8.85
2023-04-23T23:59:59.321Z,8.84
